Terminal Aerodrome Forecast
Issued by NWS

Home | Current Version | Previous Version | Text Only | Print | Product List | Glossary On
Versions: 1 2 3 4 5 6 7 8 9 10 11 12 13 14 15 16 17
000
FTUS45 KTFX 241100
TAFLWT
TAF
KLWT 241129Z 2412/2512 24010KT P6SM SCT200
     FM241500 28010KT P6SM SCT060 BKN080
     FM242100 26013G20KT P6SM VCSH BKN090
     FM250300 25010KT P6SM FEW090 SCT200=

USA.gov is the U.S. government's official web portal to all federal, state and local government web resources and services.